createdAt,value
2018-09-15T00:02:28.267Z,16.60
2018-09-15T00:04:57.586Z,16.60
2018-09-15T00:07:26.829Z,16.60
2018-09-15T00:09:55.985Z,16.60
2018-09-15T00:12:25.139Z,16.60
2018-09-15T00:14:54.280Z,16.60
2018-09-15T00:17:23.486Z,16.50
2018-09-15T00:19:52.742Z,16.50
2018-09-15T00:22:21.979Z,16.40
2018-09-15T00:24:51.196Z,16.30
2018-09-15T00:27:20.472Z,16.40
2018-09-15T00:29:49.596Z,16.40
2018-09-15T00:32:18.875Z,16.40
2018-09-15T00:34:48.099Z,16.30
2018-09-15T00:37:17.271Z,16.40
2018-09-15T00:39:46.669Z,16.50
2018-09-15T00:42:15.987Z,16.50
2018-09-15T00:44:45.266Z,16.40
2018-09-15T00:47:14.475Z,16.50
2018-09-15T00:49:43.753Z,16.50
2018-09-15T00:52:12.974Z,16.50
2018-09-15T00:54:42.072Z,16.60
2018-09-15T00:57:11.247Z,16.50
2018-09-15T00:59:40.367Z,16.60
2018-09-15T01:02:09.735Z,16.50
2018-09-15T01:04:38.964Z,16.40
2018-09-15T01:07:08.251Z,16.40
2018-09-15T01:09:37.364Z,16.50
2018-09-15T01:12:06.744Z,16.50
2018-09-15T01:14:35.962Z,16.50
2018-09-15T01:17:05.151Z,16.50
2018-09-15T01:19:34.522Z,16.50
2018-09-15T01:22:03.855Z,16.50
2018-09-15T01:24:33.134Z,16.50
2018-09-15T01:27:02.377Z,16.40
2018-09-15T01:29:31.539Z,16.40
2018-09-15T01:32:00.746Z,16.50
2018-09-15T01:34:29.902Z,16.40
2018-09-15T01:36:59.042Z,16.40
2018-09-15T01:39:28.448Z,16.30
2018-09-15T01:41:57.606Z,16.30
2018-09-15T01:44:26.846Z,16.30
2018-09-15T01:46:56.120Z,16.30
2018-09-15T01:49:25.343Z,16.30
2018-09-15T01:51:54.666Z,16.30
2018-09-15T01:54:23.934Z,16.30
2018-09-15T01:56:53.047Z,16.40
2018-09-15T01:59:22.394Z,16.40
2018-09-15T02:01:51.534Z,16.50
2018-09-15T02:04:20.744Z,16.50
2018-09-15T02:06:50.123Z,16.50
2018-09-15T02:09:19.407Z,16.50
2018-09-15T02:11:48.724Z,16.60
2018-09-15T02:14:18.047Z,16.50
2018-09-15T02:16:47.330Z,16.40
2018-09-15T02:19:16.701Z,16.50
2018-09-15T02:21:46.031Z,16.50
2018-09-15T02:24:15.331Z,16.50
2018-09-15T02:26:44.507Z,16.50
2018-09-15T02:29:13.627Z,16.50
2018-09-15T02:31:42.888Z,16.50
2018-09-15T02:34:12.123Z,16.40
2018-09-15T02:36:41.468Z,16.30
2018-09-15T02:39:11.448Z,16.30
2018-09-15T02:41:40.740Z,16.40
2018-09-15T02:44:09.905Z,16.30
2018-09-15T02:46:38.928Z,16.20
2018-09-15T02:49:08.203Z,16.20
2018-09-15T02:51:37.418Z,16.20
2018-09-15T02:54:06.797Z,16.10
2018-09-15T02:56:36.127Z,16.10
2018-09-15T02:59:05.436Z,16.10
2018-09-15T03:01:34.600Z,16.10
2018-09-15T03:04:03.919Z,16.10
2018-09-15T03:06:33.199Z,16.20
2018-09-15T03:09:02.314Z,16.10
2018-09-15T03:11:31.478Z,15.90
2018-09-15T03:14:00.629Z,15.90
2018-09-15T03:16:29.796Z,15.90
2018-09-15T03:18:58.972Z,15.90
2018-09-15T03:21:28.216Z,15.80
2018-09-15T03:23:57.475Z,15.80
2018-09-15T03:26:26.804Z,15.80
2018-09-15T03:28:55.975Z,15.80
2018-09-15T03:31:25.255Z,15.70
2018-09-15T03:33:54.571Z,15.70
2018-09-15T03:36:23.666Z,15.70
2018-09-15T03:38:52.782Z,15.70
2018-09-15T03:41:22.192Z,15.70
2018-09-15T03:43:51.491Z,15.70
2018-09-15T03:46:20.861Z,15.70
2018-09-15T03:48:49.991Z,15.70
2018-09-15T03:51:19.202Z,15.70
2018-09-15T03:53:48.460Z,15.70
2018-09-15T03:56:17.791Z,15.70
2018-09-15T03:58:47.308Z,15.70
2018-09-15T04:01:16.618Z,15.70
2018-09-15T04:03:45.860Z,15.70
2018-09-15T04:06:15.491Z,15.70
2018-09-15T04:08:44.655Z,15.70
2018-09-15T04:11:14.004Z,15.70
2018-09-15T04:13:43.167Z,15.70
2018-09-15T04:16:12.291Z,15.70
2018-09-15T04:18:41.558Z,15.70
2018-09-15T04:21:10.685Z,15.80
2018-09-15T04:23:39.987Z,15.80
2018-09-15T04:26:09.486Z,15.80
2018-09-15T04:28:38.895Z,15.80
2018-09-15T04:31:07.954Z,15.80
2018-09-15T04:33:37.111Z,15.80
2018-09-15T04:36:06.263Z,15.80
2018-09-15T04:38:35.570Z,15.80
2018-09-15T04:41:04.975Z,15.80
2018-09-15T04:43:34.279Z,15.90
2018-09-15T04:46:03.599Z,15.90
2018-09-15T04:48:32.775Z,15.90
2018-09-15T04:51:02.082Z,15.90
2018-09-15T04:53:31.251Z,15.90
2018-09-15T04:56:00.363Z,15.90
2018-09-15T04:58:29.875Z,15.90
2018-09-15T05:00:59.228Z,15.80
2018-09-15T05:03:28.458Z,15.80
2018-09-15T05:05:57.639Z,15.80
2018-09-15T05:08:26.871Z,15.70
2018-09-15T05:10:56.171Z,15.80
2018-09-15T05:13:25.859Z,15.80
2018-09-15T05:15:55.281Z,15.90
2018-09-15T05:18:24.805Z,15.90
2018-09-15T05:20:54.189Z,15.80
2018-09-15T05:23:23.555Z,15.80
2018-09-15T05:25:53.053Z,15.80
2018-09-15T05:28:22.924Z,15.80
2018-09-15T05:30:52.582Z,15.80
2018-09-15T05:33:21.803Z,15.90
2018-09-15T05:35:51.730Z,16.00
2018-09-15T05:38:21.559Z,16.00
2018-09-15T05:40:51.311Z,16.00
2018-09-15T05:43:20.684Z,16.00
2018-09-15T05:45:50.216Z,16.10
2018-09-15T05:48:20.044Z,16.20
2018-09-15T05:50:50.001Z,16.30
2018-09-15T05:53:19.339Z,16.20
2018-09-15T05:55:48.912Z,16.30
2018-09-15T05:58:18.063Z,16.20
2018-09-15T06:00:47.191Z,16.30
2018-09-15T06:03:16.460Z,16.40
2018-09-15T06:05:45.611Z,16.40
2018-09-15T06:08:14.874Z,16.40
2018-09-15T06:10:44.159Z,16.10
2018-09-15T06:13:13.473Z,16.20
2018-09-15T06:15:42.751Z,16.10
2018-09-15T06:18:11.966Z,16.20
2018-09-15T06:20:41.236Z,16.20
2018-09-15T06:23:10.463Z,16.30
2018-09-15T06:25:39.663Z,16.40
2018-09-15T06:28:08.872Z,16.40
2018-09-15T06:30:38.145Z,16.50
2018-09-15T06:33:07.207Z,16.70
2018-09-15T06:35:36.747Z,16.80
2018-09-15T06:38:06.158Z,16.50
2018-09-15T06:40:35.542Z,16.30
2018-09-15T06:43:04.947Z,16.40
2018-09-15T06:45:34.130Z,16.50
2018-09-15T06:48:03.459Z,16.60
2018-09-15T06:50:32.842Z,16.60
2018-09-15T06:53:02.179Z,16.70
2018-09-15T06:55:31.984Z,16.90
2018-09-15T06:58:01.302Z,17.00
2018-09-15T07:00:31.066Z,17.20
2018-09-15T07:03:00.270Z,17.00
2018-09-15T07:05:29.391Z,17.20
2018-09-15T07:07:58.448Z,17.00
2018-09-15T07:10:29.111Z,17.00
2018-09-15T07:12:58.362Z,16.70
2018-09-15T07:15:28.211Z,16.80
2018-09-15T07:17:58.028Z,16.80
2018-09-15T07:20:27.812Z,16.60
2018-09-15T07:22:57.047Z,16.70
2018-09-15T07:25:26.340Z,16.80
2018-09-15T07:27:55.638Z,16.90
2018-09-15T07:30:25.044Z,17.00
2018-09-15T07:32:54.247Z,16.90
2018-09-15T07:35:23.551Z,16.90
2018-09-15T07:37:52.712Z,16.90
2018-09-15T07:40:21.831Z,17.10
2018-09-15T07:42:51.008Z,16.80
2018-09-15T07:45:20.351Z,16.90
2018-09-15T07:47:49.706Z,16.90
2018-09-15T07:50:19.151Z,16.90
2018-09-15T07:52:48.414Z,16.90
2018-09-15T07:55:17.631Z,17.00
2018-09-15T07:57:46.900Z,16.90
2018-09-15T08:00:16.152Z,16.90
2018-09-15T08:02:45.296Z,17.00
2018-09-15T08:05:14.422Z,17.00
2018-09-15T08:07:43.627Z,16.90
2018-09-15T08:10:13.740Z,16.80
2018-09-15T08:12:43.692Z,17.00
2018-09-15T08:15:12.948Z,16.90
2018-09-15T08:17:42.358Z,16.70
2018-09-15T08:20:11.722Z,16.70
2018-09-15T08:22:40.950Z,16.70
2018-09-15T08:25:10.499Z,17.00
2018-09-15T08:27:39.772Z,16.80
2018-09-15T08:30:09.023Z,16.80
2018-09-15T08:32:38.327Z,16.90
2018-09-15T08:35:07.659Z,17.10
2018-09-15T08:37:36.842Z,17.10
2018-09-15T08:40:06.057Z,17.20
2018-09-15T08:42:35.155Z,17.50
2018-09-15T08:45:04.408Z,17.70
2018-09-15T08:47:33.652Z,17.80
2018-09-15T08:50:02.841Z,17.90
2018-09-15T08:52:32.898Z,18.20
2018-09-15T08:55:02.172Z,18.20
2018-09-15T08:57:31.359Z,18.10
2018-09-15T09:00:00.531Z,17.60
2018-09-15T09:02:29.665Z,17.70
2018-09-15T09:04:58.855Z,17.70
2018-09-15T09:07:28.003Z,17.70
2018-09-15T09:09:57.120Z,17.70
2018-09-15T09:12:26.955Z,17.70
2018-09-15T09:14:56.241Z,17.60
2018-09-15T09:17:25.551Z,17.60
2018-09-15T09:19:54.931Z,17.30
2018-09-15T09:22:24.250Z,17.40
2018-09-15T09:24:53.395Z,17.40
2018-09-15T09:27:22.563Z,17.70
2018-09-15T09:29:51.750Z,17.90
2018-09-15T09:32:22.139Z,18.00
2018-09-15T09:34:51.386Z,18.10
2018-09-15T09:37:20.673Z,17.90
2018-09-15T09:39:50.012Z,18.30
2018-09-15T09:42:19.322Z,18.20
2018-09-15T09:44:48.574Z,18.00
2018-09-15T09:47:17.729Z,18.30
2018-09-15T09:49:46.901Z,18.20
2018-09-15T09:52:16.878Z,18.00
2018-09-15T09:54:46.252Z,18.10
2018-09-15T09:57:15.335Z,18.30
2018-09-15T09:59:44.883Z,18.70
2018-09-15T10:02:15.216Z,19.00
2018-09-15T10:04:44.395Z,19.20
2018-09-15T10:07:13.738Z,19.40
2018-09-15T10:09:42.847Z,19.70
2018-09-15T10:12:12.294Z,19.60
2018-09-15T10:14:41.677Z,19.50
2018-09-15T10:17:10.892Z,19.60
2018-09-15T10:19:40.099Z,19.90
2018-09-15T10:22:09.408Z,20.20
2018-09-15T10:24:38.600Z,20.10
2018-09-15T10:27:07.863Z,20.00
2018-09-15T10:29:36.992Z,19.70
2018-09-15T10:32:06.232Z,19.50
2018-09-15T10:34:35.588Z,19.40
2018-09-15T10:37:04.986Z,19.40
2018-09-15T10:39:34.270Z,19.70
2018-09-15T10:42:03.583Z,19.90
2018-09-15T10:44:32.756Z,20.00
2018-09-15T10:47:01.879Z,20.20
2018-09-15T10:49:31.030Z,20.20
2018-09-15T10:52:00.271Z,20.30
2018-09-15T10:54:29.778Z,20.10
2018-09-15T10:56:59.055Z,19.80
2018-09-15T10:59:28.267Z,19.60
2018-09-15T11:01:57.443Z,19.50
2018-09-15T11:04:26.679Z,19.60
2018-09-15T11:06:55.847Z,19.80
2018-09-15T11:09:24.928Z,19.90
2018-09-15T11:11:54.265Z,19.80
2018-09-15T11:14:23.432Z,19.80
2018-09-15T11:16:52.647Z,19.80
2018-09-15T11:19:21.718Z,19.80
2018-09-15T11:21:50.939Z,19.80
2018-09-15T11:24:20.255Z,19.70
2018-09-15T11:26:49.415Z,19.60
2018-09-15T11:29:18.556Z,19.60
2018-09-15T11:31:47.707Z,19.70
2018-09-15T11:34:16.823Z,19.80
2018-09-15T11:36:46.228Z,19.90
2018-09-15T11:39:15.626Z,19.90
2018-09-15T11:41:44.938Z,20.10
2018-09-15T11:44:14.251Z,20.20
2018-09-15T11:46:43.436Z,20.30
2018-09-15T11:49:12.599Z,20.40
2018-09-15T11:51:41.839Z,20.20
2018-09-15T11:54:11.006Z,20.10
2018-09-15T11:56:40.324Z,20.20
2018-09-15T11:59:09.619Z,20.30
2018-09-15T12:01:39.010Z,20.20
2018-09-15T12:04:08.122Z,20.40
2018-09-15T12:06:37.396Z,20.20
2018-09-15T12:09:08.351Z,20.00
2018-09-15T12:11:37.663Z,19.90
2018-09-15T12:14:07.046Z,20.10
2018-09-15T12:16:36.459Z,20.10
2018-09-15T12:19:05.745Z,20.00
2018-09-15T12:21:34.978Z,19.80
2018-09-15T12:24:04.130Z,19.80
2018-09-15T12:26:33.238Z,19.60
2018-09-15T12:29:02.756Z,19.50
2018-09-15T12:31:32.027Z,19.30
2018-09-15T12:34:01.278Z,19.50
2018-09-15T12:36:30.417Z,19.80
2018-09-15T12:38:59.547Z,20.00
2018-09-15T12:41:28.740Z,20.00
2018-09-15T12:43:57.902Z,20.10
2018-09-15T12:46:27.047Z,20.40
2018-09-15T12:48:56.309Z,20.40
2018-09-15T12:51:25.515Z,20.30
2018-09-15T12:53:54.799Z,20.30
2018-09-15T12:56:24.140Z,20.60
2018-09-15T12:58:53.535Z,20.80
2018-09-15T13:01:22.707Z,20.80
2018-09-15T13:03:51.831Z,20.60
2018-09-15T13:06:21.057Z,20.70
2018-09-15T13:08:50.231Z,20.60
2018-09-15T13:11:19.416Z,20.60
2018-09-15T13:13:48.571Z,20.50
2018-09-15T13:16:17.912Z,20.30
2018-09-15T13:18:47.293Z,20.00
2018-09-15T13:21:16.515Z,20.00
2018-09-15T13:23:45.708Z,20.20
2018-09-15T13:26:14.918Z,20.40
2018-09-15T13:28:44.183Z,20.40
2018-09-15T13:31:13.303Z,20.50
2018-09-15T13:33:42.675Z,20.30
2018-09-15T13:36:11.903Z,20.20
2018-09-15T13:38:41.179Z,20.10
2018-09-15T13:41:10.604Z,20.10
2018-09-15T13:43:39.676Z,20.30
2018-09-15T13:46:19.066Z,20.50
2018-09-15T13:48:52.822Z,20.40
2018-09-15T13:51:30.368Z,20.20
2018-09-15T13:54:08.502Z,20.20
2018-09-15T13:56:49.767Z,20.10
2018-09-15T13:59:28.803Z,20.10
2018-09-15T14:02:06.661Z,20.10
2018-09-15T14:04:43.477Z,19.90
2018-09-15T14:07:12.811Z,19.80
2018-09-15T14:09:43.800Z,19.90
2018-09-15T14:12:11.448Z,20.00
2018-09-15T14:14:40.650Z,19.70
2018-09-15T14:17:09.886Z,19.70
2018-09-15T14:19:39.331Z,19.70
2018-09-15T14:22:08.870Z,19.80
2018-09-15T14:24:38.395Z,19.80
2018-09-15T14:27:07.841Z,19.90
2018-09-15T14:29:37.138Z,19.90
2018-09-15T14:32:06.498Z,19.80
2018-09-15T14:34:35.912Z,19.90
2018-09-15T14:37:05.207Z,19.90
2018-09-15T14:39:34.488Z,19.90
2018-09-15T14:42:03.898Z,20.00
2018-09-15T14:44:33.199Z,20.00
2018-09-15T14:47:02.735Z,20.20
2018-09-15T14:49:32.193Z,20.00
2018-09-15T14:52:01.455Z,20.00
2018-09-15T14:54:30.742Z,19.90
2018-09-15T14:56:59.959Z,19.80
2018-09-15T14:59:29.275Z,19.80
2018-09-15T15:01:58.578Z,19.70
2018-09-15T15:04:27.751Z,19.60
2018-09-15T15:06:59.910Z,19.60
2018-09-15T15:09:29.365Z,19.60
2018-09-15T15:11:58.813Z,19.50
2018-09-15T15:14:28.016Z,19.70
2018-09-15T15:16:57.504Z,19.70
2018-09-15T15:19:26.722Z,19.70
2018-09-15T15:21:55.877Z,19.70
2018-09-15T15:24:24.948Z,19.70
2018-09-15T15:26:54.079Z,19.70
2018-09-15T15:29:23.197Z,19.60
2018-09-15T15:31:52.587Z,19.60
2018-09-15T15:34:21.798Z,19.70
2018-09-15T15:36:51.068Z,19.70
2018-09-15T15:39:20.314Z,19.70
2018-09-15T15:41:49.602Z,19.70
2018-09-15T15:44:18.840Z,19.80
2018-09-15T15:46:47.983Z,19.70
2018-09-15T15:49:17.211Z,19.70
2018-09-15T15:51:46.447Z,19.80
2018-09-15T15:54:15.486Z,19.70
2018-09-15T15:56:44.650Z,19.70
2018-09-15T15:59:13.774Z,19.70
2018-09-15T16:01:43.132Z,19.70
2018-09-15T16:04:12.475Z,19.60
2018-09-15T16:06:41.748Z,19.60
2018-09-15T16:09:10.971Z,19.50
2018-09-15T16:11:40.162Z,19.60
2018-09-15T16:14:09.473Z,19.60
2018-09-15T16:16:38.653Z,19.60
2018-09-15T16:19:07.748Z,19.60
2018-09-15T16:21:36.856Z,19.50
2018-09-15T16:24:06.124Z,19.60
2018-09-15T16:26:35.555Z,19.40
2018-09-15T16:29:04.718Z,19.30
2018-09-15T16:31:33.951Z,19.30
2018-09-15T16:34:03.023Z,19.30
2018-09-15T16:36:32.255Z,19.30
2018-09-15T16:39:01.394Z,19.30
2018-09-15T16:41:30.513Z,19.30
2018-09-15T16:43:59.700Z,19.30
2018-09-15T16:46:28.931Z,19.10
2018-09-15T16:48:58.296Z,19.20
2018-09-15T16:51:27.428Z,19.20
2018-09-15T16:53:56.592Z,19.20
2018-09-15T16:56:25.722Z,19.20
2018-09-15T16:58:54.995Z,19.10
2018-09-15T17:01:24.116Z,19.00
2018-09-15T17:03:53.379Z,18.80
2018-09-15T17:06:22.720Z,18.70
2018-09-15T17:08:51.879Z,18.70
2018-09-15T17:11:21.106Z,18.70
2018-09-15T17:13:50.360Z,18.60
2018-09-15T17:16:19.756Z,18.50
2018-09-15T17:18:48.984Z,18.50
2018-09-15T17:21:18.105Z,18.40
2018-09-15T17:23:47.385Z,18.40
2018-09-15T17:26:16.708Z,18.40
2018-09-15T17:28:45.977Z,18.30
2018-09-15T17:31:15.429Z,18.20
2018-09-15T17:33:44.683Z,18.20
2018-09-15T17:36:13.899Z,18.20
2018-09-15T17:38:43.116Z,18.20
2018-09-15T17:41:12.466Z,18.20
2018-09-15T17:43:41.910Z,18.20
2018-09-15T17:46:11.270Z,18.30
2018-09-15T17:48:40.502Z,18.20
2018-09-15T17:51:09.788Z,18.30
2018-09-15T17:53:39.010Z,18.30
2018-09-15T17:56:11.625Z,18.20
2018-09-15T17:58:40.879Z,18.20
2018-09-15T18:01:10.275Z,18.20
2018-09-15T18:03:39.673Z,18.10
2018-09-15T18:06:08.939Z,18.00
2018-09-15T18:08:39.251Z,18.00
2018-09-15T18:11:08.472Z,18.00
2018-09-15T18:13:37.703Z,18.00
2018-09-15T18:16:07.160Z,17.90
2018-09-15T18:18:36.329Z,18.00
2018-09-15T18:21:06.414Z,17.90
2018-09-15T18:23:39.061Z,17.70
2018-09-15T18:26:08.811Z,17.70
2018-09-15T18:28:55.957Z,17.60
2018-09-15T18:31:25.834Z,17.60
2018-09-15T18:33:55.480Z,17.40
2018-09-15T18:36:24.966Z,17.40
2018-09-15T18:38:54.528Z,17.30
2018-09-15T18:41:24.486Z,17.20
2018-09-15T18:43:54.031Z,17.20
2018-09-15T18:46:23.483Z,17.20
2018-09-15T18:48:52.926Z,17.20
2018-09-15T18:51:22.707Z,17.20
2018-09-15T18:53:52.426Z,17.10
2018-09-15T18:56:23.079Z,17.10
2018-09-15T18:58:52.979Z,17.10
2018-09-15T19:01:23.178Z,16.90
2018-09-15T19:03:52.431Z,16.90
2018-09-15T19:06:22.883Z,16.90
2018-09-15T19:08:56.035Z,16.80
2018-09-15T19:11:25.395Z,16.90
2018-09-15T19:13:54.656Z,16.80
2018-09-15T19:16:24.174Z,16.90
2018-09-15T19:18:54.096Z,16.90
2018-09-15T19:21:23.203Z,17.00
2018-09-15T19:23:54.492Z,17.00
2018-09-15T19:26:24.578Z,17.00
2018-09-15T19:28:55.270Z,17.10
2018-09-15T19:31:25.499Z,17.10
2018-09-15T19:33:55.390Z,17.10
2018-09-15T19:36:25.472Z,17.10
2018-09-15T19:39:01.208Z,17.10
2018-09-15T19:41:30.503Z,17.10
2018-09-15T19:44:00.428Z,17.00
2018-09-15T19:46:29.712Z,17.00
2018-09-15T19:48:58.979Z,16.90
2018-09-15T19:51:28.418Z,16.90
2018-09-15T19:53:57.685Z,16.70
2018-09-15T19:56:27.439Z,16.70
2018-09-15T19:58:56.720Z,16.70
2018-09-15T20:01:26.107Z,16.60
2018-09-15T20:03:55.541Z,16.60
2018-09-15T20:06:24.823Z,16.60
2018-09-15T20:08:54.846Z,16.60
2018-09-15T20:11:24.699Z,16.50
2018-09-15T20:13:53.917Z,16.50
2018-09-15T20:16:21.627Z,16.40
2018-09-15T20:18:49.387Z,16.40
2018-09-15T20:21:17.120Z,16.30
2018-09-15T20:23:46.363Z,16.20
2018-09-15T20:26:15.550Z,16.20
2018-09-15T20:28:44.762Z,16.20
2018-09-15T20:31:13.902Z,16.10
2018-09-15T20:33:43.043Z,16.10
2018-09-15T20:36:12.296Z,16.10
2018-09-15T20:38:41.414Z,15.90
2018-09-15T20:41:10.720Z,16.00
2018-09-15T20:43:39.889Z,15.90
2018-09-15T20:46:09.040Z,15.90
2018-09-15T20:48:38.295Z,15.80
2018-09-15T20:51:07.612Z,15.70
2018-09-15T20:53:36.914Z,15.60
2018-09-15T20:56:06.152Z,15.60
2018-09-15T20:58:35.390Z,15.50
2018-09-15T21:01:04.608Z,15.50
2018-09-15T21:03:33.967Z,15.60
2018-09-15T21:06:03.414Z,15.60
2018-09-15T21:08:32.716Z,15.60
2018-09-15T21:11:01.988Z,15.50
2018-09-15T21:13:31.118Z,15.50
2018-09-15T21:16:00.325Z,15.40
2018-09-15T21:18:29.611Z,15.40
2018-09-15T21:20:58.879Z,15.40
2018-09-15T21:23:28.105Z,15.40
2018-09-15T21:25:57.399Z,15.30
2018-09-15T21:28:26.674Z,15.30
2018-09-15T21:30:55.798Z,15.30
2018-09-15T21:33:24.971Z,15.30
2018-09-15T21:35:54.186Z,15.20
2018-09-15T21:38:23.491Z,15.30
2018-09-15T21:40:52.854Z,15.10
2018-09-15T21:43:21.988Z,15.10
2018-09-15T21:45:51.366Z,15.00
2018-09-15T21:48:20.591Z,15.00
2018-09-15T21:50:49.867Z,15.00
2018-09-15T21:53:19.082Z,15.00
2018-09-15T21:55:48.299Z,14.90
2018-09-15T21:58:17.454Z,14.90
2018-09-15T22:00:46.782Z,14.90
2018-09-15T22:03:20.192Z,14.90
2018-09-15T22:05:49.481Z,14.90
2018-09-15T22:08:18.743Z,14.90
2018-09-15T22:10:47.871Z,14.90
2018-09-15T22:13:17.146Z,14.90
2018-09-15T22:15:46.424Z,14.90
2018-09-15T22:18:15.630Z,14.90
2018-09-15T22:20:45.003Z,14.70
2018-09-15T22:23:14.127Z,14.60
2018-09-15T22:25:43.475Z,14.40
2018-09-15T22:28:12.763Z,14.40
2018-09-15T22:30:42.142Z,14.40
2018-09-15T22:33:11.366Z,14.50
2018-09-15T22:35:40.676Z,14.40
2018-09-15T22:38:09.859Z,14.50
2018-09-15T22:40:39.047Z,14.50
2018-09-15T22:43:08.429Z,14.50
2018-09-15T22:45:37.737Z,14.30
2018-09-15T22:48:07.064Z,14.30
2018-09-15T22:50:36.335Z,14.30
2018-09-15T22:53:05.571Z,14.30
2018-09-15T22:55:34.763Z,14.30
2018-09-15T22:58:04.030Z,14.30
2018-09-15T23:00:33.139Z,14.30
2018-09-15T23:03:02.230Z,14.20
2018-09-15T23:05:31.439Z,14.30
2018-09-15T23:08:00.841Z,14.40
2018-09-15T23:10:30.252Z,14.40
2018-09-15T23:13:00.048Z,14.40
2018-09-15T23:15:29.425Z,14.40
2018-09-15T23:17:58.655Z,14.40
2018-09-15T23:20:27.956Z,14.40
2018-09-15T23:22:57.171Z,14.30
2018-09-15T23:25:26.432Z,14.30
2018-09-15T23:27:55.576Z,14.30
2018-09-15T23:30:24.719Z,14.20
2018-09-15T23:32:54.279Z,14.20
2018-09-15T23:35:23.557Z,14.10
2018-09-15T23:37:52.940Z,14.10
2018-09-15T23:40:22.151Z,14.10
2018-09-15T23:42:51.186Z,14.10
2018-09-15T23:45:20.451Z,13.90
2018-09-15T23:47:49.613Z,13.90
2018-09-15T23:50:18.847Z,13.90
2018-09-15T23:52:47.910Z,13.80
2018-09-15T23:55:17.133Z,13.90
2018-09-15T23:57:46.327Z,13.90
